createdAt,value
2022-12-14T00:02:08.685Z,-0.71
2022-12-14T00:04:36.914Z,-0.81
2022-12-14T00:07:04.753Z,-0.88
2022-12-14T00:09:32.735Z,-0.72
2022-12-14T00:12:04.073Z,-0.79
2022-12-14T00:14:31.916Z,-0.76
2022-12-14T00:17:00.106Z,-0.93
2022-12-14T00:19:28.031Z,-0.79
2022-12-14T00:21:56.253Z,-0.94
2022-12-14T00:24:24.472Z,-0.68
2022-12-14T00:26:53.055Z,-0.83
2022-12-14T00:29:21.011Z,-0.97
2022-12-14T00:31:50.402Z,-0.86
2022-12-14T00:34:18.241Z,-0.73
2022-12-14T00:36:48.991Z,-0.89
2022-12-14T00:39:17.244Z,-1.05
2022-12-14T00:41:44.945Z,-1.00
2022-12-14T00:44:12.739Z,-0.87
2022-12-14T00:46:41.254Z,-1.04
2022-12-14T00:49:12.313Z,-0.90
2022-12-14T00:51:43.512Z,-0.91
2022-12-14T00:54:11.394Z,-0.88
2022-12-14T00:56:39.179Z,-1.03
2022-12-14T00:59:10.282Z,-1.01
2022-12-14T01:01:38.156Z,-0.88
2022-12-14T01:04:18.148Z,-0.96
2022-12-14T01:06:48.607Z,-0.91
2022-12-14T01:09:17.500Z,-0.95
2022-12-14T01:11:45.862Z,-1.19
2022-12-14T01:14:16.470Z,-1.15
2022-12-14T01:16:44.345Z,-0.89
2022-12-14T01:19:13.707Z,-1.01
2022-12-14T01:21:42.486Z,-0.92
2022-12-14T01:24:10.598Z,-1.04
2022-12-14T01:26:40.277Z,-0.87
2022-12-14T01:29:08.759Z,-0.89
2022-12-14T01:31:38.348Z,-0.94
2022-12-14T01:34:06.609Z,-0.98
2022-12-14T01:36:35.987Z,-1.11
2022-12-14T01:39:13.902Z,-1.05
2022-12-14T01:41:43.506Z,-1.14
2022-12-14T01:44:11.350Z,-0.94
2022-12-14T01:46:51.041Z,-0.95
2022-12-14T01:49:43.174Z,-1.03
2022-12-14T01:52:21.717Z,-0.96
2022-12-14T01:55:04.013Z,-0.92
2022-12-14T01:57:55.632Z,-1.05
2022-12-14T02:00:24.105Z,-1.07
2022-12-14T02:03:30.850Z,-1.04
2022-12-14T02:06:12.527Z,-0.98
2022-12-14T02:08:43.617Z,-1.23
2022-12-14T02:11:11.713Z,-0.99
2022-12-14T02:13:43.475Z,-0.98
2022-12-14T02:16:11.907Z,-1.23
2022-12-14T02:18:39.743Z,-1.30
2022-12-14T02:21:10.159Z,-1.20
2022-12-14T02:24:03.131Z,-1.08
2022-12-14T02:26:55.865Z,-1.09
2022-12-14T02:29:38.631Z,-1.01
2022-12-14T02:32:36.677Z,-0.99
2022-12-14T02:35:27.070Z,-1.07
2022-12-14T02:38:13.160Z,-1.04
2022-12-14T02:41:05.354Z,-1.03
2022-12-14T02:43:42.181Z,-1.11
2022-12-14T02:46:27.107Z,-1.04
2022-12-14T02:49:08.321Z,-1.06
2022-12-14T02:51:42.629Z,-1.28
2022-12-14T02:54:20.713Z,-1.08
2022-12-14T02:56:56.525Z,-1.00
2022-12-14T02:59:25.006Z,-1.34
2022-12-14T03:01:54.722Z,-1.14
2022-12-14T03:04:25.830Z,-0.89
2022-12-14T03:07:05.448Z,-1.13
2022-12-14T03:09:33.856Z,-1.34
2022-12-14T03:12:11.112Z,-0.93
2022-12-14T03:14:46.776Z,-1.12
2022-12-14T03:17:35.840Z,-1.29
2022-12-14T03:20:11.891Z,-1.20
2022-12-14T03:22:45.432Z,-0.94
2022-12-14T03:25:16.936Z,-0.82
2022-12-14T03:27:53.896Z,-0.82
2022-12-14T03:30:44.315Z,-0.95
2022-12-14T03:33:19.216Z,-1.03
2022-12-14T03:35:57.133Z,-0.97
2022-12-14T03:38:40.031Z,-0.99
2022-12-14T03:41:17.276Z,-1.14
2022-12-14T03:43:49.834Z,-1.05
2022-12-14T03:46:49.742Z,-0.98
2022-12-14T03:49:44.117Z,-0.98
2022-12-14T03:52:27.473Z,-1.20
2022-12-14T03:55:29.663Z,-0.90
2022-12-14T03:58:09.137Z,-0.91
2022-12-14T04:00:58.096Z,-1.10
2022-12-14T04:03:47.620Z,-1.10
2022-12-14T04:06:19.981Z,-0.95
2022-12-14T04:08:48.104Z,-1.26
2022-12-14T04:11:37.537Z,-1.19
2022-12-14T04:14:37.645Z,-0.83
2022-12-14T04:17:31.824Z,-1.26
2022-12-14T04:20:39.515Z,-0.95
2022-12-14T04:23:51.827Z,-1.63
2022-12-14T04:26:28.029Z,-1.03
2022-12-14T04:29:23.735Z,-0.75
2022-12-14T04:32:01.173Z,-0.75
2022-12-14T04:34:31.654Z,-0.89
2022-12-14T04:37:04.307Z,-0.86
2022-12-14T04:39:43.305Z,-1.67
2022-12-14T04:42:14.072Z,-1.37
2022-12-14T04:44:56.135Z,-0.93
2022-12-14T04:47:35.392Z,-1.10
2022-12-14T04:50:30.962Z,-0.83
2022-12-14T04:53:05.744Z,-0.80
2022-12-14T04:55:59.041Z,-0.74
2022-12-14T04:58:30.360Z,-1.14
2022-12-14T05:01:19.675Z,-0.77
2022-12-14T05:04:25.735Z,-0.85
2022-12-14T05:07:18.528Z,-1.09
2022-12-14T05:10:14.500Z,-1.08
2022-12-14T05:12:54.304Z,-1.11
2022-12-14T05:15:28.462Z,-0.77
2022-12-14T05:17:56.953Z,-1.14
2022-12-14T05:20:25.174Z,-0.80
2022-12-14T05:22:53.045Z,-0.83
2022-12-14T05:25:20.868Z,-1.26
2022-12-14T05:27:48.922Z,-0.75
2022-12-14T05:30:17.253Z,-0.75
2022-12-14T05:32:45.083Z,-0.81
2022-12-14T05:35:14.238Z,-0.88
2022-12-14T05:37:43.378Z,-0.97
2022-12-14T05:40:11.919Z,-0.74
2022-12-14T05:42:44.783Z,-1.31
2022-12-14T05:45:15.350Z,-1.48
2022-12-14T05:47:43.457Z,-0.88
2022-12-14T05:50:11.287Z,-0.93
2022-12-14T05:52:38.987Z,-0.84
2022-12-14T05:55:07.580Z,-0.80
2022-12-14T05:57:35.357Z,-0.78
2022-12-14T06:00:04.777Z,-1.10
2022-12-14T06:02:32.474Z,-1.17
2022-12-14T06:05:00.647Z,-0.93
2022-12-14T06:07:28.562Z,-0.76
2022-12-14T06:09:56.421Z,-0.65
2022-12-14T06:12:24.602Z,-0.69
2022-12-14T06:14:55.337Z,-0.59
2022-12-14T06:17:23.185Z,-0.67
2022-12-14T06:19:52.115Z,-1.03
2022-12-14T06:22:19.890Z,-0.83
2022-12-14T06:24:47.682Z,-0.43
2022-12-14T06:27:15.886Z,-0.72
2022-12-14T06:29:43.685Z,-0.84
2022-12-14T06:32:11.468Z,-0.63
2022-12-14T06:34:42.316Z,-0.59
2022-12-14T06:37:14.482Z,-0.75
2022-12-14T06:39:42.602Z,-1.39
2022-12-14T06:42:11.744Z,-1.14
2022-12-14T06:44:39.414Z,-1.26
2022-12-14T06:47:07.620Z,-1.22
2022-12-14T06:49:35.761Z,-0.51
2022-12-14T06:52:03.631Z,-1.96
2022-12-14T06:54:31.841Z,-1.45
2022-12-14T06:56:59.710Z,-2.03
2022-12-14T06:59:27.745Z,-1.92
2022-12-14T07:01:55.922Z,-2.88
2022-12-14T07:04:24.878Z,-2.76
2022-12-14T07:06:52.764Z,-3.15
2022-12-14T07:09:21.067Z,-3.17
2022-12-14T07:11:51.973Z,-2.94
2022-12-14T07:14:21.889Z,-3.13
2022-12-14T07:16:49.798Z,-3.08
2022-12-14T07:19:18.420Z,-2.95
2022-12-14T07:21:46.611Z,-2.87
2022-12-14T07:24:14.988Z,-2.65
2022-12-14T07:26:42.808Z,-2.98
2022-12-14T07:29:12.338Z,-2.89
2022-12-14T07:31:40.397Z,-2.76
2022-12-14T07:34:08.351Z,-2.88
2022-12-14T07:36:39.772Z,-2.77
2022-12-14T07:39:08.334Z,-2.76
2022-12-14T07:41:36.436Z,-2.70
2022-12-14T07:44:04.208Z,-2.59
2022-12-14T07:46:32.677Z,-2.54
2022-12-14T07:49:01.824Z,-2.49
2022-12-14T07:51:38.552Z,-2.48
2022-12-14T07:54:07.424Z,-2.47
2022-12-14T07:56:39.928Z,-2.44
2022-12-14T07:59:08.915Z,-2.38
2022-12-14T08:01:37.755Z,-2.38
2022-12-14T08:04:11.872Z,-2.34
2022-12-14T08:06:40.561Z,-2.27
2022-12-14T08:09:10.404Z,-2.16
2022-12-14T08:11:38.927Z,-2.12
2022-12-14T08:14:12.298Z,-2.09
2022-12-14T08:16:44.280Z,-2.10
2022-12-14T08:19:13.353Z,-2.14
2022-12-14T08:21:42.013Z,-2.11
2022-12-14T08:24:13.771Z,-2.11
2022-12-14T08:26:41.976Z,-2.13
2022-12-14T08:29:12.570Z,-2.15
2022-12-14T08:31:41.154Z,-2.17
2022-12-14T08:34:10.193Z,-2.12
2022-12-14T08:36:38.015Z,-2.18
2022-12-14T08:39:08.752Z,-2.20
2022-12-14T08:41:37.288Z,-2.24
2022-12-14T08:44:05.500Z,-2.28
2022-12-14T08:46:35.346Z,-2.28
2022-12-14T08:49:04.176Z,-2.27
2022-12-14T08:51:32.215Z,-2.27
2022-12-14T08:54:00.128Z,-2.40
2022-12-14T08:56:28.955Z,-2.49
2022-12-14T08:58:57.473Z,-2.39
2022-12-14T09:01:33.945Z,-2.39
2022-12-14T09:04:08.682Z,-2.38
2022-12-14T09:06:38.289Z,-2.43
2022-12-14T09:09:13.622Z,-2.52
2022-12-14T09:11:45.279Z,-2.53
2022-12-14T09:14:13.711Z,-2.51
2022-12-14T09:16:41.858Z,-2.51
2022-12-14T09:19:09.883Z,-2.54
2022-12-14T09:21:38.844Z,-2.55
2022-12-14T09:24:07.240Z,-2.73
2022-12-14T09:26:35.226Z,-3.07
2022-12-14T09:29:03.830Z,-2.93
2022-12-14T09:31:31.610Z,-3.29
2022-12-14T09:33:59.919Z,-3.32
2022-12-14T09:36:29.278Z,-3.39
2022-12-14T09:38:58.165Z,-3.37
2022-12-14T09:41:34.836Z,-3.15
2022-12-14T09:44:25.381Z,-3.07
2022-12-14T09:47:02.026Z,-2.95
2022-12-14T09:49:40.530Z,-2.96
2022-12-14T09:52:16.918Z,-3.15
2022-12-14T09:54:49.794Z,-3.26
2022-12-14T09:57:20.784Z,-3.12
2022-12-14T09:59:48.792Z,-3.47
2022-12-14T10:02:31.881Z,-3.36
2022-12-14T10:05:35.040Z,-3.57
2022-12-14T10:08:36.145Z,-3.58
2022-12-14T10:11:18.610Z,-3.41
2022-12-14T10:14:08.456Z,-3.41
2022-12-14T10:16:54.079Z,-3.78
2022-12-14T10:19:32.509Z,-3.97
2022-12-14T10:22:12.388Z,-3.99
2022-12-14T10:25:13.419Z,-3.48
2022-12-14T10:28:09.938Z,-3.90
2022-12-14T10:30:33.846Z,-3.46
2022-12-14T10:33:13.990Z,-3.43
2022-12-14T10:35:53.180Z,-3.40
2022-12-14T10:38:33.213Z,-3.74
2022-12-14T10:41:16.544Z,-3.95
2022-12-14T10:43:56.925Z,-4.14
2022-12-14T10:46:36.626Z,-4.19
2022-12-14T10:49:20.874Z,-3.75
2022-12-14T10:51:53.004Z,-3.84
2022-12-14T10:54:39.332Z,-4.15
2022-12-14T10:57:07.164Z,-4.44
2022-12-14T10:59:42.417Z,-4.16
2022-12-14T11:02:22.646Z,-4.27
2022-12-14T11:05:11.808Z,-4.53
2022-12-14T11:07:43.669Z,-4.62
2022-12-14T11:10:27.472Z,-4.30
2022-12-14T11:13:27.276Z,-4.37
2022-12-14T11:15:57.764Z,-4.48
2022-12-14T11:18:31.743Z,-3.96
2022-12-14T11:21:03.163Z,-4.23
2022-12-14T11:23:36.112Z,-4.58
2022-12-14T11:26:15.685Z,-4.28
2022-12-14T11:28:51.973Z,-3.85
2022-12-14T11:31:52.726Z,-3.51
2022-12-14T11:34:39.483Z,-3.93
2022-12-14T11:37:30.139Z,-4.15
2022-12-14T11:40:07.291Z,-4.09
2022-12-14T11:42:37.216Z,-4.26
2022-12-14T11:45:26.805Z,-3.97
2022-12-14T11:48:16.196Z,-4.21
2022-12-14T11:50:46.023Z,-4.38
2022-12-14T11:53:16.937Z,-4.14
2022-12-14T11:55:53.473Z,-4.50
2022-12-14T11:58:27.839Z,-4.47
2022-12-14T12:01:00.776Z,-4.21
2022-12-14T12:03:38.477Z,-4.45
2022-12-14T12:06:09.435Z,-4.63
2022-12-14T12:08:42.750Z,-4.38
2022-12-14T12:11:22.591Z,-4.51
2022-12-14T12:13:52.684Z,-4.76
2022-12-14T12:16:23.848Z,-4.23
2022-12-14T12:19:12.981Z,-4.28
2022-12-14T12:21:43.433Z,-4.43
2022-12-14T12:24:19.378Z,-4.32
2022-12-14T12:26:49.986Z,-3.86
2022-12-14T12:29:43.675Z,-4.07
2022-12-14T12:32:27.107Z,-4.12
2022-12-14T12:35:12.022Z,-4.34
2022-12-14T12:37:49.347Z,-4.04
2022-12-14T12:40:34.582Z,-4.07
2022-12-14T12:43:41.176Z,-4.48
2022-12-14T12:46:20.601Z,-4.45
2022-12-14T12:48:59.398Z,-4.32
2022-12-14T12:51:40.578Z,-4.47
2022-12-14T12:54:16.508Z,-4.66
2022-12-14T12:56:58.194Z,-4.43
2022-12-14T12:59:37.800Z,-4.52
2022-12-14T13:02:36.434Z,-4.62
2022-12-14T13:05:45.286Z,-4.55
2022-12-14T13:08:17.092Z,-4.00
2022-12-14T13:11:17.163Z,-4.09
2022-12-14T13:13:37.015Z,-4.60
2022-12-14T13:16:30.071Z,-4.71
2022-12-14T13:19:40.973Z,-4.74
2022-12-14T13:22:07.205Z,-5.10
2022-12-14T13:24:37.131Z,-5.21
2022-12-14T13:28:01.747Z,-5.61
2022-12-14T13:30:44.765Z,-4.66
2022-12-14T13:33:51.905Z,-5.31
2022-12-14T13:36:52.086Z,-5.23
2022-12-14T13:40:04.298Z,-4.64
2022-12-14T13:42:57.854Z,-4.64
2022-12-14T13:45:39.626Z,-4.95
2022-12-14T13:48:28.319Z,-3.56
2022-12-14T13:51:06.710Z,-4.27
2022-12-14T13:53:40.870Z,-4.23
2022-12-14T13:56:32.605Z,-5.35
2022-12-14T13:59:22.641Z,-5.39
2022-12-14T14:01:50.529Z,-5.59
2022-12-14T14:04:27.437Z,-5.30
2022-12-14T14:07:15.242Z,-5.58
2022-12-14T14:09:55.704Z,-3.42
2022-12-14T14:12:59.027Z,-3.66
2022-12-14T14:16:27.934Z,-3.90
2022-12-14T14:19:12.782Z,-2.86
2022-12-14T14:22:06.258Z,-2.05
2022-12-14T14:24:52.782Z,-1.22
2022-12-14T14:27:26.338Z,-0.97
2022-12-14T14:29:55.640Z,-1.04
2022-12-14T14:32:43.164Z,-1.10
2022-12-14T14:35:36.603Z,-0.90
2022-12-14T14:38:28.412Z,-0.76
2022-12-14T14:41:29.315Z,-0.95
2022-12-14T14:44:03.518Z,-0.76
2022-12-14T14:46:41.284Z,-0.66
2022-12-14T14:49:24.900Z,-0.75
2022-12-14T14:51:52.614Z,-0.94
2022-12-14T14:54:56.180Z,-0.97
2022-12-14T14:57:35.404Z,-0.96
2022-12-14T15:00:07.123Z,-1.06
2022-12-14T15:02:43.363Z,-1.30
2022-12-14T15:08:39.618Z,-1.16
2022-12-14T15:11:18.228Z,-0.89
2022-12-14T15:14:26.288Z,-0.98
2022-12-14T15:16:57.540Z,-0.78
2022-12-14T15:19:28.153Z,-1.11
2022-12-14T15:22:07.074Z,-0.98
2022-12-14T15:24:40.724Z,-0.62
2022-12-14T15:27:24.558Z,-0.50
2022-12-14T15:29:55.041Z,-0.44
2022-12-14T15:32:24.662Z,-0.46
2022-12-14T15:35:26.860Z,-0.49
2022-12-14T15:38:07.128Z,-0.63
2022-12-14T15:40:35.916Z,-0.47
2022-12-14T15:43:22.306Z,-0.41
2022-12-14T15:45:56.008Z,-0.39
2022-12-14T15:48:31.308Z,-0.36
2022-12-14T15:51:04.212Z,-0.34
2022-12-14T15:53:55.269Z,-0.35
2022-12-14T15:56:40.297Z,-0.42
2022-12-14T15:59:31.931Z,-0.43
2022-12-14T16:02:18.260Z,-0.63
2022-12-14T16:04:47.363Z,-0.73
2022-12-14T16:07:28.822Z,-0.62
2022-12-14T16:10:04.068Z,-0.55
2022-12-14T16:12:44.657Z,-0.78
2022-12-14T16:15:26.288Z,-0.40
2022-12-14T16:18:01.662Z,-0.31
2022-12-14T16:20:36.267Z,-0.35
2022-12-14T16:23:07.201Z,-0.49
2022-12-14T16:25:37.723Z,-0.55
2022-12-14T16:28:21.592Z,-0.79
2022-12-14T16:30:56.829Z,-0.63
2022-12-14T16:33:25.727Z,-0.65
2022-12-14T16:36:07.713Z,-0.77
2022-12-14T16:38:56.989Z,-1.18
2022-12-14T16:41:37.220Z,-2.05
2022-12-14T16:44:08.247Z,-2.15
2022-12-14T16:46:36.886Z,-1.79
2022-12-14T16:49:44.518Z,-1.27
2022-12-14T16:52:15.741Z,-2.48
2022-12-14T16:54:43.999Z,-2.86
2022-12-14T16:57:23.453Z,-2.38
2022-12-14T17:00:01.457Z,-2.16
2022-12-14T17:02:36.290Z,-2.84
2022-12-14T17:05:17.933Z,-2.80
2022-12-14T17:07:45.989Z,-2.77
2022-12-14T17:10:20.183Z,-2.66
2022-12-14T17:12:49.407Z,-2.81
2022-12-14T17:15:19.895Z,-3.06
2022-12-14T17:17:51.766Z,-3.10
2022-12-14T17:20:29.498Z,-3.43
2022-12-14T17:23:00.492Z,-2.77
2022-12-14T17:25:30.264Z,-2.80
2022-12-14T17:27:58.979Z,-3.29
2022-12-14T17:30:27.582Z,-3.72
2022-12-14T17:32:56.029Z,-3.02
2022-12-14T17:35:26.229Z,-3.45
2022-12-14T17:37:54.153Z,-3.95
2022-12-14T17:40:22.517Z,-3.21
2022-12-14T17:42:53.720Z,-4.14
2022-12-14T17:45:24.865Z,-4.44
2022-12-14T17:47:53.089Z,-4.31
2022-12-14T17:50:22.353Z,-4.35
2022-12-14T17:52:53.603Z,-4.65
2022-12-14T17:55:24.703Z,-3.96
2022-12-14T17:57:52.587Z,-4.63
2022-12-14T18:00:42.362Z,-4.59
2022-12-14T18:05:58.552Z,-4.73
2022-12-14T18:08:27.144Z,-4.96
2022-12-14T18:11:01.318Z,-4.39
2022-12-14T18:13:31.738Z,-3.97
2022-12-14T18:16:00.809Z,-4.06
2022-12-14T18:18:29.851Z,-4.36
2022-12-14T18:21:01.857Z,-4.16
2022-12-14T18:23:31.064Z,-4.24
2022-12-14T18:28:46.972Z,-3.34
2022-12-14T18:31:36.801Z,-2.90
2022-12-14T18:34:05.615Z,-3.75
2022-12-14T18:36:33.508Z,-3.61
2022-12-14T18:39:01.510Z,-3.81
2022-12-14T18:41:31.404Z,-3.38
2022-12-14T18:46:49.315Z,-3.82
2022-12-14T18:49:17.405Z,-3.65
2022-12-14T18:51:45.286Z,-4.16
2022-12-14T18:54:13.499Z,-4.20
2022-12-14T18:56:42.343Z,-2.96
2022-12-14T18:59:10.161Z,-4.13
2022-12-14T19:01:38.392Z,-3.96
2022-12-14T19:04:07.814Z,-3.68
2022-12-14T19:06:44.876Z,-3.58
2022-12-14T19:09:16.953Z,-3.11
2022-12-14T19:11:45.450Z,-3.78
2022-12-14T19:14:13.664Z,-2.53
2022-12-14T19:16:41.488Z,-3.30
2022-12-14T19:19:09.653Z,-2.98
2022-12-14T19:21:38.081Z,-2.20
2022-12-14T19:24:08.796Z,-2.66
2022-12-14T19:26:39.487Z,-1.89
2022-12-14T19:29:07.387Z,-1.65
2022-12-14T19:31:35.219Z,-1.88
2022-12-14T19:34:03.586Z,-1.27
2022-12-14T19:36:31.545Z,-1.60
2022-12-14T19:38:59.600Z,-1.93
2022-12-14T19:41:28.186Z,-2.06
2022-12-14T19:43:57.842Z,-2.11
2022-12-14T19:46:28.941Z,-1.49
2022-12-14T19:48:59.454Z,-1.85
2022-12-14T19:51:27.472Z,-3.01
2022-12-14T19:53:55.867Z,-2.69
2022-12-14T19:56:24.757Z,-2.15
2022-12-14T19:59:01.105Z,-1.24
2022-12-14T20:01:39.714Z,-1.79
2022-12-14T20:04:11.920Z,-1.43
2022-12-14T20:06:40.121Z,-0.99
2022-12-14T20:09:08.622Z,-1.14
2022-12-14T20:11:41.187Z,-1.18
2022-12-14T20:14:10.417Z,-1.07
2022-12-14T20:16:39.297Z,-1.09
2022-12-14T20:19:07.622Z,-0.78
2022-12-14T20:21:35.595Z,-0.76
2022-12-14T20:24:04.241Z,-0.88
2022-12-14T20:26:32.654Z,-1.09
2022-12-14T20:29:06.206Z,-0.96
2022-12-14T20:31:36.131Z,-0.75
2022-12-14T20:34:07.584Z,-0.86
2022-12-14T20:36:38.852Z,-0.75
2022-12-14T20:39:10.321Z,-0.71
2022-12-14T20:41:38.605Z,-0.64
2022-12-14T20:44:14.064Z,-0.56
2022-12-14T20:46:45.206Z,-0.56
2022-12-14T20:49:19.352Z,-0.55
2022-12-14T20:51:48.760Z,-0.48
2022-12-14T20:54:19.928Z,-0.45
2022-12-14T20:56:49.679Z,-0.41
2022-12-14T20:59:17.910Z,-0.45
2022-12-14T21:01:51.892Z,-0.46
2022-12-14T21:04:22.621Z,-0.49
2022-12-14T21:06:50.690Z,-0.57
2022-12-14T21:09:18.572Z,-0.55
2022-12-14T21:12:07.700Z,-0.59
2022-12-14T21:14:45.019Z,-0.69
2022-12-14T21:17:14.961Z,-0.50
2022-12-14T21:19:45.990Z,-0.48
2022-12-14T21:22:20.066Z,-0.69
2022-12-14T21:25:05.675Z,-0.88
2022-12-14T21:27:38.673Z,-0.69
2022-12-14T21:30:10.340Z,-0.96
2022-12-14T21:32:38.892Z,-1.66
2022-12-14T21:35:07.773Z,-1.37
2022-12-14T21:37:39.056Z,-1.76
2022-12-14T21:40:08.686Z,-2.08
2022-12-14T21:42:36.431Z,-2.81
2022-12-14T21:45:05.206Z,-2.82
2022-12-14T21:47:34.238Z,-2.58
2022-12-14T21:50:02.158Z,-3.35
2022-12-14T21:52:30.611Z,-2.18
2022-12-14T21:55:00.113Z,-2.82
2022-12-14T21:57:49.695Z,-2.81
2022-12-14T22:00:19.006Z,-1.60
2022-12-14T22:02:47.414Z,-1.46
2022-12-14T22:05:15.587Z,-3.52
2022-12-14T22:07:43.278Z,-2.50
2022-12-14T22:10:11.546Z,-2.62
2022-12-14T22:12:40.083Z,-2.24
2022-12-14T22:15:08.610Z,-3.57
2022-12-14T22:17:36.773Z,-2.34
2022-12-14T22:20:05.435Z,-2.64
2022-12-14T22:22:33.936Z,-3.06
2022-12-14T22:25:02.268Z,-4.20
2022-12-14T22:27:30.741Z,-3.46
2022-12-14T22:29:58.621Z,-4.35
2022-12-14T22:32:27.262Z,-3.51
2022-12-14T22:34:58.201Z,-2.36
2022-12-14T22:37:26.467Z,-3.46
2022-12-14T22:39:54.258Z,-3.30
2022-12-14T22:42:22.459Z,-3.85
2022-12-14T22:44:50.708Z,-3.75
2022-12-14T22:47:18.916Z,-4.72
2022-12-14T22:49:47.407Z,-4.63
2022-12-14T22:52:18.630Z,-4.72
2022-12-14T22:54:51.706Z,-4.70
2022-12-14T22:57:21.459Z,-4.43
2022-12-14T22:59:56.636Z,-4.04
2022-12-14T23:02:25.126Z,-3.89
2022-12-14T23:04:53.081Z,-3.67
2022-12-14T23:07:21.041Z,-2.38
2022-12-14T23:10:10.628Z,-1.80
2022-12-14T23:12:56.972Z,-1.11
2022-12-14T23:15:44.000Z,-1.50
2022-12-14T23:18:30.394Z,-0.99
2022-12-14T23:21:16.981Z,-0.94
2022-12-14T23:24:05.124Z,-0.86
2022-12-14T23:26:52.666Z,-0.74
2022-12-14T23:29:39.033Z,-0.73
2022-12-14T23:32:25.440Z,-0.67
2022-12-14T23:35:14.420Z,-0.63
2022-12-14T23:38:01.088Z,-0.64
2022-12-14T23:40:48.039Z,-0.62
2022-12-14T23:43:37.376Z,-0.63
2022-12-14T23:46:25.462Z,-0.67
2022-12-14T23:49:16.023Z,-0.67
2022-12-14T23:52:02.752Z,-0.67
2022-12-14T23:54:49.573Z,-0.67
2022-12-14T23:57:36.773Z,-0.67
